< Typhoon 198503 1985 Season Typhoon 198505 >
Typhoon 198504 (NO-NAME)
General InformationTrack Information on Google MapsDetailed Wind InformationList of All Images || Disaster Info.ResourceGoogle EarthGE AnimationAtom FeedGeoJSON
Detalied Best Track (Time Zone = UTC)
Year Month Day Hour Lat. Long. Pressure (hPa) Wind (kt) Class Image Chart
1985 6 14 18 19.0 111.0 1000 0 2 Image Chart
1985 6 15 00 18.5 111.6 1000 0 2 Image Chart
1985 6 15 06 18.2 112.1 1000 0 2 Image Chart
1985 6 15 12 18.0 112.4 1000 0 2 Image Chart
1985 6 15 18 17.8 112.5 1000 0 2 Image Chart
1985 6 16 00 17.6 112.6 998 0 2 Image Chart
1985 6 16 06 17.4 112.6 998 0 2 Image Chart
1985 6 16 12 17.2 112.5 996 0 2 Image Chart
1985 6 16 18 17.0 112.3 996 0 2 Image Chart
1985 6 17 00 16.8 112.3 994 0 2 Image Chart
1985 6 17 06 16.6 112.1 992 35 3 Image Chart
1985 6 17 12 16.3 111.8 992 35 3 Image Chart
1985 6 17 18 16.2 111.2 990 35 3 Image Chart
1985 6 18 00 16.3 110.6 990 35 3 Image Chart
1985 6 18 06 16.4 110.1 992 35 3 Image Chart
1985 6 18 12 16.7 109.7 992 35 3 Image Chart
1985 6 18 18 17.0 109.5 992 35 3 Image Chart
1985 6 19 00 17.3 109.7 992 35 3 Image Chart
1985 6 19 06 17.6 109.8 992 35 3 Image Chart
1985 6 19 12 17.9 109.7 992 35 3 Image Chart
1985 6 19 18 18.1 109.3 994 0 2 Image Chart
1985 6 20 00 18.3 108.9 996 0 2 Image Chart
1985 6 20 06 18.5 108.6 996 0 2 Image Chart
1985 6 20 12 18.8 108.2 998 0 2 Image Chart
1985 6 20 18 19.1 107.8 998 0 2 Image Chart
1985 6 21 00 19.5 107.6 998 0 2 Image Chart
1985 6 21 06 19.7 107.3 998 0 2 Image Chart
1985 6 21 12 20.0 107.0 998 0 2 Image Chart
1985 6 21 18 20.1 106.5 1000 0 2 Image Chart
1985 6 22 00 20.1 106.0 1000 0 2 Image Chart
Japan Meteorological Agency Best Track Data | Correction Date : 1992-10-21
< Typhoon 198503 1985 Season Typhoon 198505 >

Help